sensor_id;sensor_type;location;lat;lon;timestamp;pressure;altitude;pressure_sealevel;temperature;humidity
13348;BME280;6743;49.934;9.138;2023-05-02T00:00:56;100499.00;;;13.32;100.00
13348;BME280;6743;49.934;9.138;2023-05-02T00:03:24;100497.50;;;13.30;100.00
13348;BME280;6743;49.934;9.138;2023-05-02T00:05:50;100496.50;;;13.31;100.00
13348;BME280;6743;49.934;9.138;2023-05-02T00:08:16;100493.84;;;13.31;100.00
13348;BME280;6743;49.934;9.138;2023-05-02T00:10:42;100495.50;;;13.32;100.00
13348;BME280;6743;49.934;9.138;2023-05-02T00:13:08;100497.50;;;13.30;100.00
13348;BME280;6743;49.934;9.138;2023-05-02T00:15:34;100493.19;;;13.29;100.00
13348;BME280;6743;49.934;9.138;2023-05-02T00:18:00;100486.38;;;13.26;100.00
13348;BME280;6743;49.934;9.138;2023-05-02T00:20:27;100486.88;;;13.22;100.00
13348;BME280;6743;49.934;9.138;2023-05-02T00:22:54;100494.97;;;13.14;100.00
13348;BME280;6743;49.934;9.138;2023-05-02T00:25:20;100497.09;;;13.10;100.00
13348;BME280;6743;49.934;9.138;2023-05-02T00:27:46;100498.81;;;13.03;100.00
13348;BME280;6743;49.934;9.138;2023-05-02T00:30:15;100498.81;;;13.03;100.00
13348;BME280;6743;49.934;9.138;2023-05-02T00:32:41;100498.97;;;13.01;100.00
13348;BME280;6743;49.934;9.138;2023-05-02T00:35:07;100497.00;;;12.95;100.00
13348;BME280;6743;49.934;9.138;2023-05-02T00:37:34;100496.34;;;12.93;100.00
13348;BME280;6743;49.934;9.138;2023-05-02T00:40:00;100488.72;;;12.90;100.00
13348;BME280;6743;49.934;9.138;2023-05-02T00:42:27;100495.38;;;12.86;100.00
13348;BME280;6743;49.934;9.138;2023-05-02T00:44:55;100486.59;;;12.86;100.00
13348;BME280;6743;49.934;9.138;2023-05-02T00:47:21;100494.91;;;12.83;100.00
13348;BME280;6743;49.934;9.138;2023-05-02T00:49:48;100497.91;;;12.80;100.00
13348;BME280;6743;49.934;9.138;2023-05-02T00:52:15;100498.94;;;12.79;100.00
13348;BME280;6743;49.934;9.138;2023-05-02T00:54:42;100493.78;;;12.77;100.00
13348;BME280;6743;49.934;9.138;2023-05-02T00:57:08;100497.75;;;12.73;100.00
13348;BME280;6743;49.934;9.138;2023-05-02T00:59:35;100501.47;;;12.72;100.00
13348;BME280;6743;49.934;9.138;2023-05-02T01:02:10;100506.44;;;12.67;100.00
13348;BME280;6743;49.934;9.138;2023-05-02T01:04:44;100509.09;;;12.67;100.00
13348;BME280;6743;49.934;9.138;2023-05-02T01:07:27;100504.97;;;12.65;100.00
13348;BME280;6743;49.934;9.138;2023-05-02T01:10:08;100504.16;;;12.64;100.00
13348;BME280;6743;49.934;9.138;2023-05-02T01:12:41;100515.13;;;12.61;100.00
13348;BME280;6743;49.934;9.138;2023-05-02T01:15:11;100506.47;;;12.59;100.00
13348;BME280;6743;49.934;9.138;2023-05-02T01:17:38;100510.31;;;12.56;100.00
13348;BME280;6743;49.934;9.138;2023-05-02T01:20:09;100509.81;;;12.53;100.00
13348;BME280;6743;49.934;9.138;2023-05-02T01:22:39;100522.28;;;12.52;100.00
13348;BME280;6743;49.934;9.138;2023-05-02T01:25:17;100521.16;;;12.47;100.00
13348;BME280;6743;49.934;9.138;2023-05-02T01:27:50;100526.47;;;12.39;100.00
13348;BME280;6743;49.934;9.138;2023-05-02T01:30:23;100525.84;;;12.37;100.00
13348;BME280;6743;49.934;9.138;2023-05-02T01:32:52;100541.13;;;12.35;100.00
13348;BME280;6743;49.934;9.138;2023-05-02T01:35:21;100534.16;;;12.34;100.00
13348;BME280;6743;49.934;9.138;2023-05-02T01:37:48;100534.50;;;12.31;100.00
13348;BME280;6743;49.934;9.138;2023-05-02T01:40:17;100528.84;;;12.26;100.00
13348;BME280;6743;49.934;9.138;2023-05-02T01:42:44;100531.19;;;12.29;100.00
13348;BME280;6743;49.934;9.138;2023-05-02T01:45:13;100536.81;;;12.26;100.00
13348;BME280;6743;49.934;9.138;2023-05-02T01:47:42;100540.47;;;12.24;100.00
13348;BME280;6743;49.934;9.138;2023-05-02T01:50:11;100545.16;;;12.22;100.00
13348;BME280;6743;49.934;9.138;2023-05-02T01:52:40;100545.47;;;12.19;100.00
13348;BME280;6743;49.934;9.138;2023-05-02T01:55:10;100549.97;;;12.19;100.00
13348;BME280;6743;49.934;9.138;2023-05-02T01:57:39;100559.13;;;12.16;100.00
13348;BME280;6743;49.934;9.138;2023-05-02T02:00:08;100558.28;;;12.16;100.00
13348;BME280;6743;49.934;9.138;2023-05-02T02:02:36;100557.47;;;12.15;100.00
13348;BME280;6743;49.934;9.138;2023-05-02T02:05:07;100555.81;;;12.14;100.00
13348;BME280;6743;49.934;9.138;2023-05-02T02:07:33;100558.47;;;12.14;100.00
13348;BME280;6743;49.934;9.138;2023-05-02T02:10:00;100571.91;;;12.13;100.00
13348;BME280;6743;49.934;9.138;2023-05-02T02:12:29;100559.59;;;12.12;100.00
13348;BME280;6743;49.934;9.138;2023-05-02T02:14:59;100579.56;;;12.08;100.00
13348;BME280;6743;49.934;9.138;2023-05-02T02:17:28;100572.75;;;12.05;100.00
13348;BME280;6743;49.934;9.138;2023-05-02T02:20:00;100572.59;;;11.99;100.00
13348;BME280;6743;49.934;9.138;2023-05-02T02:22:29;100577.91;;;11.99;100.00
13348;BME280;6743;49.934;9.138;2023-05-02T02:24:56;100579.72;;;11.98;100.00
13348;BME280;6743;49.934;9.138;2023-05-02T02:27:24;100590.72;;;11.95;100.00
13348;BME280;6743;49.934;9.138;2023-05-02T02:29:50;100587.06;;;11.96;100.00
13348;BME280;6743;49.934;9.138;2023-05-02T02:32:16;100592.84;;;11.92;100.00
13348;BME280;6743;49.934;9.138;2023-05-02T02:34:42;100591.38;;;11.89;100.00
13348;BME280;6743;49.934;9.138;2023-05-02T02:37:13;100595.34;;;11.85;100.00
13348;BME280;6743;49.934;9.138;2023-05-02T02:39:46;100596.69;;;11.81;100.00
13348;BME280;6743;49.934;9.138;2023-05-02T02:42:22;100593.34;;;11.79;100.00
13348;BME280;6743;49.934;9.138;2023-05-02T02:44:54;100598.31;;;11.74;100.00
13348;BME280;6743;49.934;9.138;2023-05-02T02:47:25;100599.44;;;11.71;100.00
13348;BME280;6743;49.934;9.138;2023-05-02T02:50:02;100602.75;;;11.65;100.00
13348;BME280;6743;49.934;9.138;2023-05-02T02:52:39;100603.91;;;11.63;100.00
13348;BME280;6743;49.934;9.138;2023-05-02T02:55:18;100608.72;;;11.59;100.00
13348;BME280;6743;49.934;9.138;2023-05-02T02:57:56;100609.03;;;11.56;100.00
13348;BME280;6743;49.934;9.138;2023-05-02T03:00:25;100608.38;;;11.46;100.00
13348;BME280;6743;49.934;9.138;2023-05-02T03:02:53;100618.00;;;11.47;100.00
13348;BME280;6743;49.934;9.138;2023-05-02T03:05:20;100618.31;;;11.44;100.00
13348;BME280;6743;49.934;9.138;2023-05-02T03:07:47;100616.66;;;11.43;100.00
13348;BME280;6743;49.934;9.138;2023-05-02T03:10:14;100615.16;;;11.40;100.00
13348;BME280;6743;49.934;9.138;2023-05-02T03:12:40;100617.13;;;11.38;100.00
13348;BME280;6743;49.934;9.138;2023-05-02T03:15:18;100636.41;;;11.40;100.00
13348;BME280;6743;49.934;9.138;2023-05-02T03:17:47;100631.09;;;11.40;100.00
13348;BME280;6743;49.934;9.138;2023-05-02T03:20:13;100628.44;;;11.40;100.00
13348;BME280;6743;49.934;9.138;2023-05-02T03:22:39;100631.91;;;11.33;100.00
13348;BME280;6743;49.934;9.138;2023-05-02T03:25:06;100634.38;;;11.34;100.00
13348;BME280;6743;49.934;9.138;2023-05-02T03:27:33;100632.38;;;11.28;100.00
13348;BME280;6743;49.934;9.138;2023-05-02T03:29:59;100634.19;;;11.28;100.00
13348;BME280;6743;49.934;9.138;2023-05-02T03:32:25;100631.38;;;11.29;100.00
13348;BME280;6743;49.934;9.138;2023-05-02T03:34:51;100637.66;;;11.28;100.00
13348;BME280;6743;49.934;9.138;2023-05-02T03:37:17;100641.00;;;11.30;100.00
13348;BME280;6743;49.934;9.138;2023-05-02T03:39:43;100638.19;;;11.32;100.00
13348;BME280;6743;49.934;9.138;2023-05-02T03:42:09;100637.53;;;11.30;100.00
13348;BME280;6743;49.934;9.138;2023-05-02T03:44:35;100645.50;;;11.30;100.00
13348;BME280;6743;49.934;9.138;2023-05-02T03:47:01;100650.81;;;11.30;100.00
13348;BME280;6743;49.934;9.138;2023-05-02T03:49:27;100650.13;;;11.28;100.00
13348;BME280;6743;49.934;9.138;2023-05-02T03:51:53;100646.47;;;11.29;100.00
13348;BME280;6743;49.934;9.138;2023-05-02T03:54:19;100656.59;;;11.25;100.00
13348;BME280;6743;49.934;9.138;2023-05-02T03:56:45;100660.41;;;11.23;100.00
13348;BME280;6743;49.934;9.138;2023-05-02T03:59:13;100667.19;;;11.17;100.00
13348;BME280;6743;49.934;9.138;2023-05-02T04:01:40;100669.62;;;11.11;100.00
13348;BME280;6743;49.934;9.138;2023-05-02T04:04:06;100672.09;;;11.04;100.00
13348;BME280;6743;49.934;9.138;2023-05-02T04:06:32;100676.22;;;10.98;100.00
13348;BME280;6743;49.934;9.138;2023-05-02T04:08:58;100675.69;;;10.95;100.00
13348;BME280;6743;49.934;9.138;2023-05-02T04:11:25;100685.16;;;10.97;100.00
13348;BME280;6743;49.934;9.138;2023-05-02T04:13:51;100686.97;;;10.97;100.00
13348;BME280;6743;49.934;9.138;2023-05-02T04:16:17;100691.31;;;10.98;100.00
13348;BME280;6743;49.934;9.138;2023-05-02T04:18:44;100689.31;;;11.00;100.00
13348;BME280;6743;49.934;9.138;2023-05-02T04:21:10;100693.63;;;11.01;100.00
13348;BME280;6743;49.934;9.138;2023-05-02T04:23:36;100689.31;;;11.00;100.00
13348;BME280;6743;49.934;9.138;2023-05-02T04:26:02;100702.13;;;11.04;100.00
13348;BME280;6743;49.934;9.138;2023-05-02T04:28:28;100702.13;;;11.04;100.00
13348;BME280;6743;49.934;9.138;2023-05-02T04:30:55;100709.25;;;11.04;100.00
13348;BME280;6743;49.934;9.138;2023-05-02T04:33:21;100707.94;;;11.08;100.00
13348;BME280;6743;49.934;9.138;2023-05-02T04:35:49;100706.75;;;11.02;100.00
13348;BME280;6743;49.934;9.138;2023-05-02T04:38:15;100720.03;;;11.02;100.00
13348;BME280;6743;49.934;9.138;2023-05-02T04:40:42;100721.00;;;11.01;100.00
13348;BME280;6743;49.934;9.138;2023-05-02T04:43:08;100727.31;;;11.00;100.00
13348;BME280;6743;49.934;9.138;2023-05-02T04:45:34;100733.47;;;11.01;100.00
13348;BME280;6743;49.934;9.138;2023-05-02T04:48:00;100741.28;;;11.02;100.00
13348;BME280;6743;49.934;9.138;2023-05-02T04:50:26;100741.81;;;11.06;100.00
13348;BME280;6743;49.934;9.138;2023-05-02T04:52:54;100746.50;;;11.12;100.00
13348;BME280;6743;49.934;9.138;2023-05-02T04:55:20;100751.19;;;11.18;100.00
13348;BME280;6743;49.934;9.138;2023-05-02T04:57:46;100754.34;;;11.22;100.00
13348;BME280;6743;49.934;9.138;2023-05-02T05:00:12;100756.53;;;11.26;100.00
13348;BME280;6743;49.934;9.138;2023-05-02T05:02:39;100765.84;;;11.30;100.00
13348;BME280;6743;49.934;9.138;2023-05-02T05:05:05;100775.34;;;11.33;100.00
13348;BME280;6743;49.934;9.138;2023-05-02T05:07:31;100783.31;;;11.33;100.00
13348;BME280;6743;49.934;9.138;2023-05-02T05:09:57;100784.97;;;11.34;100.00
13348;BME280;6743;49.934;9.138;2023-05-02T05:12:23;100788.44;;;11.34;100.00
13348;BME280;6743;49.934;9.138;2023-05-02T05:14:49;100791.09;;;11.34;100.00
13348;BME280;6743;49.934;9.138;2023-05-02T05:17:17;100798.75;;;11.37;100.00
13348;BME280;6743;49.934;9.138;2023-05-02T05:19:45;100802.25;;;11.38;100.00
13348;BME280;6743;49.934;9.138;2023-05-02T05:22:11;100806.59;;;11.39;100.00
13348;BME280;6743;49.934;9.138;2023-05-02T05:24:37;100814.91;;;11.44;100.00
13348;BME280;6743;49.934;9.138;2023-05-02T05:27:04;100812.78;;;11.48;100.00
13348;BME280;6743;49.934;9.138;2023-05-02T05:29:30;100817.63;;;11.52;100.00
13348;BME280;6743;49.934;9.138;2023-05-02T05:31:57;100820.78;;;11.56;100.00
13348;BME280;6743;49.934;9.138;2023-05-02T05:34:25;100819.50;;;11.60;100.00
13348;BME280;6743;49.934;9.138;2023-05-02T05:36:51;100825.16;;;11.65;100.00
13348;BME280;6743;49.934;9.138;2023-05-02T05:39:17;100834.47;;;11.69;100.00
13348;BME280;6743;49.934;9.138;2023-05-02T05:41:43;100834.88;;;11.74;100.00
13348;BME280;6743;49.934;9.138;2023-05-02T05:44:11;100842.22;;;11.80;100.00
13348;BME280;6743;49.934;9.138;2023-05-02T05:46:37;100850.41;;;11.87;100.00
13348;BME280;6743;49.934;9.138;2023-05-02T05:49:03;100853.25;;;11.93;100.00
13348;BME280;6743;49.934;9.138;2023-05-02T05:51:29;100857.06;;;11.91;100.00
13348;BME280;6743;49.934;9.138;2023-05-02T05:53:55;100859.56;;;11.92;100.00
13348;BME280;6743;49.934;9.138;2023-05-02T05:56:21;100860.41;;;11.93;100.00
13348;BME280;6743;49.934;9.138;2023-05-02T05:58:47;100870.34;;;11.91;100.00
13348;BME280;6743;49.934;9.138;2023-05-02T06:01:15;100869.50;;;11.90;100.00
13348;BME280;6743;49.934;9.138;2023-05-02T06:03:41;100871.19;;;11.91;100.00
13348;BME280;6743;49.934;9.138;2023-05-02T06:06:07;100865.41;;;11.96;100.00
13348;BME280;6743;49.934;9.138;2023-05-02T06:08:33;100872.91;;;12.00;100.00
13348;BME280;6743;49.934;9.138;2023-05-02T06:10:59;100874.72;;;12.00;100.00
13348;BME280;6743;49.934;9.138;2023-05-02T06:13:25;100881.03;;;11.99;100.00
13348;BME280;6743;49.934;9.138;2023-05-02T06:15:51;100877.87;;;12.03;100.00
13348;BME280;6743;49.934;9.138;2023-05-02T06:18:17;100872.94;;;12.08;100.00
13348;BME280;6743;49.934;9.138;2023-05-02T06:20:43;100882.94;;;12.14;100.00
13348;BME280;6743;49.934;9.138;2023-05-02T06:23:09;100880.47;;;12.21;100.00
13348;BME280;6743;49.934;9.138;2023-05-02T06:25:38;100880.66;;;12.28;100.00
13348;BME280;6743;49.934;9.138;2023-05-02T06:28:04;100881.34;;;12.38;100.00
13348;BME280;6743;49.934;9.138;2023-05-02T06:30:30;100892.41;;;12.51;100.00
13348;BME280;6743;49.934;9.138;2023-05-02T06:32:56;100890.22;;;12.54;100.00
13348;BME280;6743;49.934;9.138;2023-05-02T06:35:23;100883.78;;;12.57;100.00
13348;BME280;6743;49.934;9.138;2023-05-02T06:37:49;100890.75;;;12.66;100.00
13348;BME280;6743;49.934;9.138;2023-05-02T06:40:15;100892.59;;;12.74;100.00
13348;BME280;6743;49.934;9.138;2023-05-02T06:42:41;100894.81;;;12.78;100.00
13348;BME280;6743;49.934;9.138;2023-05-02T06:45:07;100899.94;;;12.80;100.00
13348;BME280;6743;49.934;9.138;2023-05-02T06:47:33;100905.78;;;12.83;100.00
13348;BME280;6743;49.934;9.138;2023-05-02T06:49:59;100910.12;;;12.84;100.00
13348;BME280;6743;49.934;9.138;2023-05-02T06:52:26;100919.41;;;12.80;100.00
13348;BME280;6743;49.934;9.138;2023-05-02T06:54:52;100913.91;;;12.74;100.00
13348;BME280;6743;49.934;9.138;2023-05-02T06:57:18;100917.25;;;12.76;100.00
13348;BME280;6743;49.934;9.138;2023-05-02T06:59:45;100907.25;;;12.70;100.00
13348;BME280;6743;49.934;9.138;2023-05-02T07:02:11;100914.75;;;12.74;100.00
13348;BME280;6743;49.934;9.138;2023-05-02T07:04:37;100919.25;;;12.82;100.00
13348;BME280;6743;49.934;9.138;2023-05-02T07:07:03;100911.25;;;12.82;100.00
13348;BME280;6743;49.934;9.138;2023-05-02T07:09:30;100917.75;;;12.87;100.00
13348;BME280;6743;49.934;9.138;2023-05-02T07:11:56;100919.78;;;12.93;100.00
13348;BME280;6743;49.934;9.138;2023-05-02T07:14:22;100924.28;;;13.01;100.00
13348;BME280;6743;49.934;9.138;2023-05-02T07:16:48;100915.16;;;13.12;100.00
13348;BME280;6743;49.934;9.138;2023-05-02T07:19:14;100922.84;;;13.23;100.00
13348;BME280;6743;49.934;9.138;2023-05-02T07:21:41;100923.69;;;13.31;100.00
13348;BME280;6743;49.934;9.138;2023-05-02T07:24:07;100928.69;;;13.43;100.00
13348;BME280;6743;49.934;9.138;2023-05-02T07:26:33;100918.16;;;13.49;100.00
13348;BME280;6743;49.934;9.138;2023-05-02T07:28:59;100924.34;;;13.58;100.00
13348;BME280;6743;49.934;9.138;2023-05-02T07:31:25;100929.00;;;13.56;100.00
13348;BME280;6743;49.934;9.138;2023-05-02T07:33:51;100931.03;;;13.62;100.00
13348;BME280;6743;49.934;9.138;2023-05-02T07:36:17;100931.34;;;13.59;100.00
13348;BME280;6743;49.934;9.138;2023-05-02T07:38:43;100924.50;;;13.56;100.00
13348;BME280;6743;49.934;9.138;2023-05-02T07:41:10;100931.84;;;13.54;100.00
13348;BME280;6743;49.934;9.138;2023-05-02T07:43:38;100933.84;;;13.60;100.00
13348;BME280;6743;49.934;9.138;2023-05-02T07:46:05;100927.53;;;13.61;100.00
13348;BME280;6743;49.934;9.138;2023-05-02T07:48:31;100938.00;;;13.63;100.00
13348;BME280;6743;49.934;9.138;2023-05-02T07:51:05;100927.84;;;13.66;100.00
13348;BME280;6743;49.934;9.138;2023-05-02T07:53:31;100929.50;;;13.75;100.00
13348;BME280;6743;49.934;9.138;2023-05-02T07:55:57;100929.81;;;13.80;100.00
13348;BME280;6743;49.934;9.138;2023-05-02T07:58:23;100931.50;;;13.82;100.00
13348;BME280;6743;49.934;9.138;2023-05-02T08:00:50;100938.97;;;13.78;100.00
13348;BME280;6743;49.934;9.138;2023-05-02T08:03:16;100941.16;;;13.74;100.00
13348;BME280;6743;49.934;9.138;2023-05-02T08:05:42;100938.34;;;13.68;100.00
13348;BME280;6743;49.934;9.138;2023-05-02T08:08:08;100940.50;;;13.72;100.00
13348;BME280;6743;49.934;9.138;2023-05-02T08:10:34;100946.16;;;13.77;100.00
13348;BME280;6743;49.934;9.138;2023-05-02T08:13:00;100948.34;;;13.82;100.00
13348;BME280;6743;49.934;9.138;2023-05-02T08:15:26;100949.66;;;13.86;100.00
13348;BME280;6743;49.934;9.138;2023-05-02T08:17:53;100950.97;;;13.90;100.00
13348;BME280;6743;49.934;9.138;2023-05-02T08:20:19;100956.28;;;13.90;100.00
13348;BME280;6743;49.934;9.138;2023-05-02T08:22:46;100949.63;;;13.94;100.00
13348;BME280;6743;49.934;9.138;2023-05-02T08:25:13;100963.81;;;13.95;100.00
13348;BME280;6743;49.934;9.138;2023-05-02T08:27:40;100953.31;;;13.93;100.00
13348;BME280;6743;49.934;9.138;2023-05-02T08:30:07;100953.47;;;13.92;100.00
13348;BME280;6743;49.934;9.138;2023-05-02T08:32:35;100960.16;;;13.96;100.00
13348;BME280;6743;49.934;9.138;2023-05-02T08:35:02;100966.97;;;13.98;100.00
13348;BME280;6743;49.934;9.138;2023-05-02T08:37:28;100969.97;;;14.03;100.00
13348;BME280;6743;49.934;9.138;2023-05-02T08:39:54;100975.63;;;14.08;100.00
13348;BME280;6743;49.934;9.138;2023-05-02T08:42:20;100973.94;;;14.07;100.00
13348;BME280;6743;49.934;9.138;2023-05-02T08:44:47;100974.94;;;14.14;100.00
13348;BME280;6743;49.934;9.138;2023-05-02T08:47:14;100976.75;;;14.22;100.00
13348;BME280;6743;49.934;9.138;2023-05-02T08:49:41;100976.41;;;14.25;100.00
13348;BME280;6743;49.934;9.138;2023-05-02T08:52:08;100979.56;;;14.29;100.00
13348;BME280;6743;49.934;9.138;2023-05-02T08:54:37;100978.75;;;14.28;100.00
13348;BME280;6743;49.934;9.138;2023-05-02T08:57:03;100979.56;;;14.29;100.00
13348;BME280;6743;49.934;9.138;2023-05-02T08:59:29;100992.91;;;14.37;100.00
13348;BME280;6743;49.934;9.138;2023-05-02T09:02:00;101005.44;;;14.44;100.00
13348;BME280;6743;49.934;9.138;2023-05-02T09:04:31;101006.56;;;14.34;100.00
13348;BME280;6743;49.934;9.138;2023-05-02T09:06:59;101008.91;;;14.37;100.00
13348;BME280;6743;49.934;9.138;2023-05-02T09:09:25;101013.28;;;14.38;100.00
13348;BME280;6743;49.934;9.138;2023-05-02T09:11:53;101016.75;;;14.38;100.00
13348;BME280;6743;49.934;9.138;2023-05-02T09:14:19;101010.94;;;14.43;100.00
13348;BME280;6743;49.934;9.138;2023-05-02T09:16:46;101022.44;;;14.51;100.00
13348;BME280;6743;49.934;9.138;2023-05-02T09:19:23;101015.34;;;14.67;100.00
13348;BME280;6743;49.934;9.138;2023-05-02T09:21:49;101015.81;;;14.78;100.00
13348;BME280;6743;49.934;9.138;2023-05-02T09:24:17;101039.31;;;14.83;100.00
13348;BME280;6743;49.934;9.138;2023-05-02T09:26:56;101034.38;;;14.72;100.00
13348;BME280;6743;49.934;9.138;2023-05-02T09:29:22;101048.75;;;14.63;100.00
13348;BME280;6743;49.934;9.138;2023-05-02T09:31:49;101039.91;;;14.62;100.00
13348;BME280;6743;49.934;9.138;2023-05-02T09:34:15;101050.56;;;14.70;100.00
13348;BME280;6743;49.934;9.138;2023-05-02T09:36:43;101035.00;;;14.74;100.00
13348;BME280;6743;49.934;9.138;2023-05-02T09:39:10;101034.16;;;14.81;100.00
13348;BME280;6743;49.934;9.138;2023-05-02T09:41:41;101048.00;;;14.85;100.00
13348;BME280;6743;49.934;9.138;2023-05-02T09:44:09;101040.50;;;14.80;100.00
13348;BME280;6743;49.934;9.138;2023-05-02T09:46:39;101039.66;;;14.80;100.00
13348;BME280;6743;49.934;9.138;2023-05-02T09:49:05;101038.16;;;14.85;100.00
13348;BME280;6743;49.934;9.138;2023-05-02T09:51:31;101041.16;;;14.82;100.00
13348;BME280;6743;49.934;9.138;2023-05-02T09:53:57;101043.16;;;14.80;100.00
13348;BME280;6743;49.934;9.138;2023-05-02T09:56:23;101036.78;;;14.89;100.00
13348;BME280;6743;49.934;9.138;2023-05-02T09:58:49;101041.16;;;14.82;100.00
13348;BME280;6743;49.934;9.138;2023-05-02T10:01:17;101043.00;;;14.82;100.00
13348;BME280;6743;49.934;9.138;2023-05-02T10:03:46;101045.34;;;14.85;100.00
13348;BME280;6743;49.934;9.138;2023-05-02T10:06:14;101039.31;;;14.83;100.00
13348;BME280;6743;49.934;9.138;2023-05-02T10:08:41;101042.12;;;14.89;100.00
13348;BME280;6743;49.934;9.138;2023-05-02T10:11:08;101041.47;;;14.87;100.00
13348;BME280;6743;49.934;9.138;2023-05-02T10:13:37;101038.16;;;14.85;100.00
13348;BME280;6743;49.934;9.138;2023-05-02T10:16:07;101033.97;;;14.83;100.00
13348;BME280;6743;49.934;9.138;2023-05-02T10:18:41;101049.69;;;14.86;100.00
13348;BME280;6743;49.934;9.138;2023-05-02T10:21:10;101045.47;;;14.91;100.00
13348;BME280;6743;49.934;9.138;2023-05-02T10:23:40;101040.59;;;14.95;100.00
13348;BME280;6743;49.934;9.138;2023-05-02T10:26:09;101033.91;;;14.99;100.00
13348;BME280;6743;49.934;9.138;2023-05-02T10:28:36;101037.91;;;15.03;100.00
13348;BME280;6743;49.934;9.138;2023-05-02T10:31:04;101047.37;;;15.14;100.00
13348;BME280;6743;49.934;9.138;2023-05-02T10:33:30;101044.84;;;15.20;100.00
13348;BME280;6743;49.934;9.138;2023-05-02T10:35:59;101048.94;;;15.31;100.00
13348;BME280;6743;49.934;9.138;2023-05-02T10:38:25;101058.09;;;15.36;100.00
13348;BME280;6743;49.934;9.138;2023-05-02T10:40:55;101032.06;;;15.30;100.00
13348;BME280;6743;49.934;9.138;2023-05-02T10:43:24;101045.50;;;15.45;100.00
13348;BME280;6743;49.934;9.138;2023-05-02T10:45:51;101040.16;;;15.45;100.00
13348;BME280;6743;49.934;9.138;2023-05-02T10:48:20;101040.66;;;15.49;100.00
13348;BME280;6743;49.934;9.138;2023-05-02T10:50:48;101037.78;;;15.50;100.00
13348;BME280;6743;49.934;9.138;2023-05-02T10:53:27;101019.06;;;15.50;100.00
13348;BME280;6743;49.934;9.138;2023-05-02T10:56:16;101030.03;;;15.63;100.00
13348;BME280;6743;49.934;9.138;2023-05-02T10:58:43;101049.25;;;15.67;100.00
13348;BME280;6743;49.934;9.138;2023-05-02T11:01:32;101043.87;;;15.67;100.00
13348;BME280;6743;49.934;9.138;2023-05-02T11:04:05;101036.22;;;15.64;100.00
13348;BME280;6743;49.934;9.138;2023-05-02T11:06:33;101036.87;;;15.66;100.00
13348;BME280;6743;49.934;9.138;2023-05-02T11:09:30;101025.81;;;15.69;100.00
13348;BME280;6743;49.934;9.138;2023-05-02T11:11:57;101032.94;;;15.76;100.00
13348;BME280;6743;49.934;9.138;2023-05-02T11:14:42;101034.25;;;15.81;100.00
13348;BME280;6743;49.934;9.138;2023-05-02T11:17:08;101051.06;;;15.89;100.00
13348;BME280;6743;49.934;9.138;2023-05-02T11:22:55;101036.03;;;15.88;100.00
13348;BME280;6743;49.934;9.138;2023-05-02T11:25:33;101025.06;;;15.98;100.00
13348;BME280;6743;49.934;9.138;2023-05-02T11:27:59;101023.31;;;16.05;100.00
13348;BME280;6743;49.934;9.138;2023-05-02T11:30:39;101036.00;;;16.11;100.00
13348;BME280;6743;49.934;9.138;2023-05-02T11:33:16;101018.56;;;16.15;100.00
13348;BME280;6743;49.934;9.138;2023-05-02T11:35:43;101027.97;;;16.26;100.00
13348;BME280;6743;49.934;9.138;2023-05-02T11:38:11;101023.53;;;16.33;100.00
13348;BME280;6743;49.934;9.138;2023-05-02T11:40:38;101025.88;;;16.36;100.00
13348;BME280;6743;49.934;9.138;2023-05-02T11:43:11;101022.53;;;16.34;100.00
13348;BME280;6743;49.934;9.138;2023-05-02T11:45:39;101022.59;;;16.26;100.00
13348;BME280;6743;49.934;9.138;2023-05-02T11:48:06;101012.72;;;16.26;100.00
13348;BME280;6743;49.934;9.138;2023-05-02T11:50:32;101022.00;;;16.38;100.00
13348;BME280;6743;49.934;9.138;2023-05-02T11:52:59;101024.69;;;16.38;100.00
13348;BME280;6743;49.934;9.138;2023-05-02T11:55:25;101016.66;;;16.38;100.00
13348;BME280;6743;49.934;9.138;2023-05-02T11:57:52;101010.06;;;16.41;100.00
13348;BME280;6743;49.934;9.138;2023-05-02T12:00:18;101016.53;;;16.46;100.00
13348;BME280;6743;49.934;9.138;2023-05-02T12:02:51;101018.75;;;16.43;100.00
13348;BME280;6743;49.934;9.138;2023-05-02T12:05:26;101003.63;;;16.50;100.00
13348;BME280;6743;49.934;9.138;2023-05-02T12:07:52;101010.25;;;16.54;100.00
13348;BME280;6743;49.934;9.138;2023-05-02T12:10:18;101014.91;;;16.60;100.00
13348;BME280;6743;49.934;9.138;2023-05-02T12:12:44;101010.56;;;16.59;100.00
13348;BME280;6743;49.934;9.138;2023-05-02T12:15:11;101006.16;;;16.66;100.00
13348;BME280;6743;49.934;9.138;2023-05-02T12:17:39;101013.44;;;16.72;100.00
13348;BME280;6743;49.934;9.138;2023-05-02T12:20:08;101026.09;;;16.64;100.00
13348;BME280;6743;49.934;9.138;2023-05-02T12:22:35;101018.59;;;16.59;100.00
13348;BME280;6743;49.934;9.138;2023-05-02T12:25:01;101024.03;;;16.51;100.00
13348;BME280;6743;49.934;9.138;2023-05-02T12:27:29;101011.84;;;16.48;100.00
13348;BME280;6743;49.934;9.138;2023-05-02T12:29:55;101024.56;;;16.46;100.00
13348;BME280;6743;49.934;9.138;2023-05-02T12:32:32;101019.13;;;16.40;100.00
13348;BME280;6743;49.934;9.138;2023-05-02T12:34:58;101027.34;;;16.53;100.00
13348;BME280;6743;49.934;9.138;2023-05-02T12:37:26;101021.91;;;16.61;100.00
13348;BME280;6743;49.934;9.138;2023-05-02T12:39:52;101029.31;;;16.59;100.00
13348;BME280;6743;49.934;9.138;2023-05-02T12:42:20;101023.09;;;16.59;100.00
13348;BME280;6743;49.934;9.138;2023-05-02T12:44:48;101014.03;;;16.60;100.00
13348;BME280;6743;49.934;9.138;2023-05-02T12:47:17;101019.91;;;16.63;100.00
13348;BME280;6743;49.934;9.138;2023-05-02T12:49:50;101020.34;;;16.67;100.00
13348;BME280;6743;49.934;9.138;2023-05-02T12:52:17;101028.03;;;16.70;100.00
13348;BME280;6743;49.934;9.138;2023-05-02T12:54:43;101025.53;;;16.68;100.00
13348;BME280;6743;49.934;9.138;2023-05-02T12:57:09;101028.84;;;16.70;100.00